createdAt,value
2023-06-09T00:00:13.991Z,4.3
2023-06-09T00:05:13.104Z,4.1
2023-06-09T00:10:13.383Z,4.3
2023-06-09T00:15:15.912Z,5.3
2023-06-09T00:20:13.668Z,4.7
2023-06-09T00:25:13.390Z,4.6
2023-06-09T00:30:22.444Z,4.1
2023-06-09T00:35:13.781Z,4.4
2023-06-09T00:40:13.607Z,4.7
2023-06-09T00:45:13.237Z,4.1
2023-06-09T00:50:13.790Z,4.6
2023-06-09T00:55:15.641Z,4.6
2023-06-09T01:00:17.052Z,4.7
2023-06-09T01:05:13.663Z,4.4
2023-06-09T01:10:16.584Z,4.8
2023-06-09T01:15:16.167Z,4.5
2023-06-09T01:20:13.683Z,4.4
2023-06-09T01:25:24.564Z,4.4
2023-06-09T01:30:14.952Z,4.6
2023-06-09T01:35:13.370Z,4.2
2023-06-09T01:40:13.237Z,4.5
2023-06-09T01:45:13.495Z,4.7
2023-06-09T01:50:14.773Z,5.1
2023-06-09T01:55:15.391Z,4.5
2023-06-09T02:00:13.647Z,4.2
2023-06-09T02:05:13.458Z,4.5
2023-06-09T02:10:13.808Z,5.1
2023-06-09T02:15:12.921Z,5.4
2023-06-09T02:20:14.717Z,5.5
2023-06-09T02:25:13.363Z,4.7
2023-06-09T02:30:12.643Z,5.7
2023-06-09T02:35:12.576Z,4.8
2023-06-09T02:40:12.967Z,5.7
2023-06-09T02:45:13.246Z,5.9
2023-06-09T02:50:12.517Z,6.2
2023-06-09T02:55:12.294Z,5.9
2023-06-09T03:00:13.435Z,5.8
2023-06-09T03:05:12.582Z,6.3
2023-06-09T03:10:13.196Z,6.5
2023-06-09T03:15:12.541Z,6.2
2023-06-09T03:20:12.354Z,6.4
2023-06-09T03:25:12.569Z,6.1
2023-06-09T03:30:12.061Z,6.6
2023-06-09T03:35:11.916Z,6.6
2023-06-09T03:40:12.240Z,6.6
2023-06-09T03:45:11.978Z,6.1
2023-06-09T03:50:12.161Z,7
2023-06-09T03:55:13.158Z,6.9
2023-06-09T04:00:13.107Z,7
2023-06-09T04:05:11.424Z,7.5
2023-06-09T04:10:11.764Z,7.9
2023-06-09T04:15:11.509Z,7.6
2023-06-09T04:20:13.236Z,7.4
2023-06-09T04:25:11.062Z,7.2
2023-06-09T04:30:11.639Z,7.5
2023-06-09T04:35:10.947Z,6.8
2023-06-09T04:40:15.230Z,7.8
2023-06-09T04:45:11.257Z,7.6
2023-06-09T04:50:12.186Z,8.3
2023-06-09T04:55:11.090Z,7.7
2023-06-09T05:00:17.388Z,7.3
2023-06-09T05:05:11.654Z,7.1
2023-06-09T05:10:11.215Z,6.9
2023-06-09T05:15:11.463Z,7.5
2023-06-09T05:20:12.066Z,7.1
2023-06-09T05:25:17.308Z,7.2
2023-06-09T05:30:12.042Z,7.4
2023-06-09T05:35:12.165Z,7.3
2023-06-09T05:40:13.099Z,7.2
2023-06-09T05:45:13.088Z,7
2023-06-09T05:50:13.515Z,7.3
2023-06-09T05:55:13.662Z,6.9
2023-06-09T06:00:14.513Z,7.4
2023-06-09T06:05:14.877Z,7.5
2023-06-09T06:10:15.328Z,7.6
2023-06-09T06:15:15.052Z,7.9
2023-06-09T06:20:16.573Z,7.4
2023-06-09T06:25:18.740Z,8.4
2023-06-09T06:30:16.980Z,7.3
2023-06-09T06:35:16.950Z,7.6
2023-06-09T06:40:17.667Z,7.5
2023-06-09T06:45:17.658Z,7.6
2023-06-09T06:50:18.146Z,7.5
2023-06-09T06:55:18.733Z,7.7
2023-06-09T07:00:19.861Z,7.6
2023-06-09T07:05:20.309Z,7.6
2023-06-09T07:10:20.325Z,8
2023-06-09T07:15:21.024Z,7.5
2023-06-09T07:20:21.657Z,7.7
2023-06-09T07:25:22.495Z,6.6
2023-06-09T07:30:23.013Z,7.9
2023-06-09T07:35:24.691Z,7.8
2023-06-09T07:40:24.549Z,7.7
2023-06-09T07:45:24.976Z,7.6
2023-06-09T07:50:25.794Z,7.6
2023-06-09T07:55:26.733Z,6.9
2023-06-09T08:00:28.990Z,6.7
2023-06-09T08:05:27.927Z,7.1
2023-06-09T08:10:28.640Z,6.6
2023-06-09T08:15:29.363Z,6.7
2023-06-09T08:20:30.084Z,6.7
2023-06-09T08:25:30.852Z,6.6
2023-06-09T08:30:32.415Z,6.8
2023-06-09T08:35:43.071Z,6.5
2023-06-09T08:40:41.790Z,6.3
2023-06-09T08:45:44.964Z,6.5
2023-06-09T08:50:42.971Z,6.6
2023-06-09T08:55:42.541Z,6.1
2023-06-09T09:00:42.919Z,6
2023-06-09T09:05:41.130Z,5.5
2023-06-09T09:10:41.977Z,6.1
2023-06-09T09:15:43.022Z,6.1
2023-06-09T09:20:53.070Z,5.5
2023-06-09T09:25:42.030Z,5.8
2023-06-09T09:30:52.324Z,5.3
2023-06-09T09:35:44.390Z,5.6
2023-06-09T09:40:45.301Z,5.6
2023-06-09T09:45:48.713Z,6.1
2023-06-09T09:50:45.386Z,5.7
2023-06-09T09:55:46.290Z,6
2023-06-09T10:00:48.158Z,6.2
2023-06-09T10:05:47.743Z,6
2023-06-09T10:10:48.215Z,6.2
2023-06-09T10:15:49.605Z,5.3
2023-06-09T10:20:49.824Z,5.5
2023-06-09T10:25:51.112Z,5.6
2023-06-09T10:30:51.674Z,5.5
2023-06-09T10:35:53.330Z,5.5
2023-06-09T10:40:54.903Z,5.1
2023-06-09T10:45:57.622Z,5.9
2023-06-09T10:50:54.779Z,4.9
2023-06-09T10:56:05.647Z,5.2
2023-06-09T11:01:13.859Z,5.5
2023-06-09T11:06:04.184Z,5.7
2023-06-09T11:10:58.248Z,5.2
2023-06-09T11:16:07.956Z,5.2
2023-06-09T11:21:16.230Z,5.3
2023-06-09T11:26:00.786Z,5.2
2023-06-09T11:31:13.782Z,5.4
2023-06-09T11:36:02.519Z,5.2
2023-06-09T11:41:05.110Z,5.4
2023-06-09T11:46:08.688Z,5.5
2023-06-09T11:51:05.287Z,5.6
2023-06-09T11:56:07.265Z,5
2023-06-09T12:01:06.790Z,4.9
2023-06-09T12:06:07.731Z,5.1
2023-06-09T12:11:19.547Z,4.9
2023-06-09T12:16:09.327Z,4.7
2023-06-09T12:21:10.382Z,4.9
2023-06-09T12:26:17.988Z,4.6
2023-06-09T12:31:19.706Z,4.9
2023-06-09T12:36:13.291Z,5.4
2023-06-09T12:41:14.354Z,5.2
2023-06-09T12:46:14.235Z,5.5
2023-06-09T12:51:14.937Z,4.9
2023-06-09T12:56:15.844Z,4.5
2023-06-09T13:01:16.689Z,5.1
2023-06-09T13:06:17.708Z,4.9
2023-06-09T13:11:18.360Z,4.6
2023-06-09T13:16:19.128Z,4.8
2023-06-09T13:21:38.772Z,4.6
2023-06-09T13:26:21.066Z,4.6
2023-06-09T13:31:21.343Z,5.1
2023-06-09T13:36:22.516Z,4.9
2023-06-09T13:41:23.382Z,4.4
2023-06-09T13:46:23.984Z,4.6
2023-06-09T13:51:24.302Z,5.5
2023-06-09T13:56:25.012Z,4.8
2023-06-09T14:01:25.769Z,4.7
2023-06-09T14:06:27.057Z,5
2023-06-09T14:11:27.286Z,5.4
2023-06-09T14:16:28.086Z,5
2023-06-09T14:21:28.861Z,5
2023-06-09T14:26:29.674Z,4.8
2023-06-09T14:31:30.449Z,5.2
2023-06-09T14:36:31.025Z,5.5
2023-06-09T14:41:31.726Z,5.2
2023-06-09T14:46:32.634Z,4.9
2023-06-09T14:51:33.145Z,5.3
2023-06-09T14:56:33.958Z,4.9
2023-06-09T15:01:34.812Z,5.1
2023-06-09T15:06:36.892Z,5.4
2023-06-09T15:11:36.025Z,5.6
2023-06-09T15:16:36.880Z,4.9
2023-06-09T15:21:37.428Z,5
2023-06-09T15:26:39.562Z,5.7
2023-06-09T15:31:38.777Z,5.6
2023-06-09T15:36:39.410Z,5.3
2023-06-09T15:41:40.191Z,5.3
2023-06-09T15:46:40.808Z,5.7
2023-06-09T15:51:41.535Z,5.7
2023-06-09T15:56:42.270Z,5.6
2023-06-09T16:01:43.071Z,6.1
2023-06-09T16:06:44.016Z,6.2
2023-06-09T16:11:44.413Z,6.3
2023-06-09T16:16:45.108Z,6.1
2023-06-09T16:21:45.587Z,6.3
2023-06-09T16:26:46.490Z,6.2
2023-06-09T16:31:46.982Z,5.8
2023-06-09T16:36:47.690Z,5.6
2023-06-09T16:41:48.262Z,5.7
2023-06-09T16:46:49.045Z,5.4
2023-06-09T16:51:49.672Z,5.8
2023-06-09T16:56:50.276Z,5.9
2023-06-09T17:01:51.138Z,6.1
2023-06-09T17:06:51.720Z,5.6
2023-06-09T17:11:52.424Z,5.6
2023-06-09T17:16:53.169Z,5.4
2023-06-09T17:21:53.850Z,5.6
2023-06-09T17:26:55.093Z,5.8
2023-06-09T17:31:55.572Z,5.2
2023-06-09T17:36:55.881Z,5.6
2023-06-09T17:41:56.526Z,5.6
2023-06-09T17:46:57.259Z,5.3
2023-06-09T17:51:57.872Z,5.2
2023-06-09T17:56:58.593Z,5.2
2023-06-09T18:02:01.459Z,5.5
2023-06-09T18:06:59.736Z,5.4
2023-06-09T18:12:00.278Z,5.2
2023-06-09T18:17:00.816Z,5.9
2023-06-09T18:22:01.902Z,5.6
2023-06-09T18:27:01.811Z,5.5
2023-06-09T18:32:02.261Z,5.6
2023-06-09T18:37:02.727Z,5.3
2023-06-09T18:42:03.311Z,5.4
2023-06-09T18:47:03.861Z,5.1
2023-06-09T18:52:04.029Z,4.9
2023-06-09T18:57:04.426Z,5
2023-06-09T19:02:04.942Z,5.4
2023-06-09T19:07:05.210Z,5.2
2023-06-09T19:12:06.752Z,5.1
2023-06-09T19:17:05.990Z,5
2023-06-09T19:22:06.288Z,5.2
2023-06-09T19:27:06.765Z,5.1
2023-06-09T19:32:08.063Z,4.9
2023-06-09T19:37:07.677Z,5.5
2023-06-09T19:42:07.981Z,4.7
2023-06-09T19:47:08.402Z,4.8
2023-06-09T19:52:08.673Z,5.1
2023-06-09T19:57:09.143Z,5.2
2023-06-09T20:02:09.050Z,5.4
2023-06-09T20:07:09.229Z,5.3
2023-06-09T20:12:10.268Z,5.3
2023-06-09T20:17:09.794Z,6
2023-06-09T20:22:10.590Z,5.7
2023-06-09T20:27:10.546Z,6.1
2023-06-09T20:32:11.075Z,5.6
2023-06-09T20:37:10.842Z,6.1
2023-06-09T20:42:11.223Z,5.3
2023-06-09T20:47:11.191Z,5.3
2023-06-09T20:52:12.069Z,5.6
2023-06-09T20:57:11.912Z,6
2023-06-09T21:02:11.825Z,5.9
2023-06-09T21:07:12.438Z,5.6
2023-06-09T21:12:12.682Z,6.1
2023-06-09T21:17:13.634Z,6.4
2023-06-09T21:22:12.373Z,6.5
2023-06-09T21:27:12.493Z,6.5
2023-06-09T21:32:12.807Z,6.8
2023-06-09T21:37:12.690Z,7.2
2023-06-09T21:42:14.062Z,6.6
2023-06-09T21:47:13.141Z,6.7
2023-06-09T21:52:13.358Z,6.3
2023-06-09T21:57:13.362Z,6.2
2023-06-09T22:02:13.581Z,5.9
2023-06-09T22:07:13.710Z,5.9
2023-06-09T22:12:17.311Z,5.3
2023-06-09T22:17:15.545Z,5.7
2023-06-09T22:22:14.200Z,5.9
2023-06-09T22:27:16.254Z,6.2
2023-06-09T22:32:14.722Z,5.4
2023-06-09T22:37:14.959Z,5.7
2023-06-09T22:42:15.344Z,5.6
2023-06-09T22:47:15.146Z,5.6
2023-06-09T22:52:18.376Z,5.7
2023-06-09T22:57:15.886Z,5.6
2023-06-09T23:02:15.526Z,5.8
2023-06-09T23:07:15.808Z,5.6
2023-06-09T23:12:16.479Z,5
2023-06-09T23:17:15.849Z,5.3
2023-06-09T23:22:19.351Z,4.5
2023-06-09T23:27:16.210Z,4.8
2023-06-09T23:32:16.654Z,4.5
2023-06-09T23:37:21.217Z,4.5
2023-06-09T23:42:16.473Z,4.8
2023-06-09T23:47:16.605Z,4.6
2023-06-09T23:52:16.677Z,4.4
2023-06-09T23:57:17.132Z,4.4
